Time;durP1;ratioP1;P1;durP2;ratioP2;P2;SDS_P1;SDS_P2;PMS_P1;PMS_P2;Temp;Humidity;BMP_temperature;BMP_pressure;BME280_temperature;BME280_humidity;BME280_pressure;Samples;Min_cycle;Max_cycle;Signal;HPM_P1;HPM_P2
2022/07/17 00:00:31;;;;;;;152.40;65.57;;;;;;;;;;5097073;28;20214;-64
2022/07/17 00:02:58;;;;;;;141.73;63.40;;;;;;;;;;5096712;28;20211;-64
2022/07/17 00:05:26;;;;;;;138.35;60.85;;;;;;;;;;5096665;28;20211;-63
2022/07/17 00:07:53;;;;;;;127.78;57.60;;;;;;;;;;5096146;28;20206;-63
2022/07/17 00:10:21;;;;;;;121.00;55.00;;;;;;;;;;5099096;28;20238;-63
2022/07/17 00:12:48;;;;;;;115.88;53.72;;;;;;;;;;5100697;28;20203;-64
2022/07/17 00:15:15;;;;;;;106.18;48.38;;;;;;;;;;5101022;28;20290;-63
2022/07/17 00:17:45;;;;;;;103.07;46.90;;;;;;;;;;5100404;28;20227;-63
2022/07/17 00:20:13;;;;;;;95.88;45.22;;;;;;;;;;5100630;28;20231;-64
2022/07/17 00:22:42;;;;;;;95.47;44.75;;;;;;;;;;5101052;28;20214;-63
2022/07/17 00:25:11;;;;;;;87.00;42.03;;;;;;;;;;5100279;28;20203;-63
2022/07/17 00:27:38;;;;;;;87.57;39.63;;;;;;;;;;5099722;28;20211;-63
2022/07/17 00:30:07;;;;;;;74.80;36.42;;;;;;;;;;5100176;28;20298;-63
2022/07/17 00:32:35;;;;;;;76.28;36.50;;;;;;;;;;5099871;28;20207;-64
2022/07/17 00:35:04;;;;;;;69.97;34.10;;;;;;;;;;5100177;28;20497;-64
2022/07/17 00:37:31;;;;;;;64.13;32.75;;;;;;;;;;5100291;28;20322;-63
2022/07/17 00:39:59;;;;;;;63.72;32.50;;;;;;;;;;5100631;28;20314;-63
2022/07/17 00:42:26;;;;;;;61.03;30.77;;;;;;;;;;5100455;28;20211;-64
2022/07/17 00:44:54;;;;;;;58.58;29.20;;;;;;;;;;5099957;28;20207;-63
2022/07/17 00:47:22;;;;;;;56.17;27.98;;;;;;;;;;5100336;28;20672;-63
2022/07/17 00:49:50;;;;;;;54.78;27.02;;;;;;;;;;5100342;28;20214;-63
2022/07/17 00:52:19;;;;;;;50.15;25.50;;;;;;;;;;5099349;28;20223;-64
2022/07/17 00:54:47;;;;;;;46.15;23.63;;;;;;;;;;5099633;28;20577;-63
2022/07/17 00:57:16;;;;;;;47.42;23.33;;;;;;;;;;5099450;28;20215;-63
2022/07/17 00:59:44;;;;;;;44.58;22.92;;;;;;;;;;5100279;28;20481;-63
2022/07/17 01:02:13;;;;;;;43.78;22.63;;;;;;;;;;5100196;28;20593;-63
2022/07/17 01:04:41;;;;;;;40.80;21.23;;;;;;;;;;5100244;28;20566;-64
2022/07/17 01:07:08;;;;;;;39.97;20.92;;;;;;;;;;5100443;28;20488;-63
2022/07/17 01:09:37;;;;;;;40.83;19.45;;;;;;;;;;5099922;28;20222;-63
2022/07/17 01:12:07;;;;;;;37.17;18.27;;;;;;;;;;5099956;28;20203;-63
2022/07/17 01:14:35;;;;;;;35.22;18.23;;;;;;;;;;5099819;28;20203;-63
2022/07/17 01:17:02;;;;;;;32.67;17.02;;;;;;;;;;5100093;28;20230;-63
2022/07/17 01:19:30;;;;;;;32.17;17.63;;;;;;;;;;5100277;28;20203;-63
2022/07/17 01:21:59;;;;;;;32.08;16.17;;;;;;;;;;5098180;28;20278;-64
2022/07/17 01:24:27;;;;;;;30.27;15.85;;;;;;;;;;5099820;28;20565;-64
2022/07/17 01:26:55;;;;;;;33.83;14.88;;;;;;;;;;5100111;28;20204;-64
2022/07/17 01:29:22;;;;;;;28.23;14.43;;;;;;;;;;5100287;28;20203;-63
2022/07/17 01:31:51;;;;;;;21.65;12.80;;;;;;;;;;5100060;28;20302;-63
2022/07/17 01:34:18;;;;;;;21.55;12.95;;;;;;;;;;5100113;28;20207;-64
2022/07/17 01:36:45;;;;;;;24.83;12.70;;;;;;;;;;5100146;28;20220;-63
2022/07/17 01:39:15;;;;;;;25.90;12.00;;;;;;;;;;5100416;28;20234;-63
2022/07/17 01:41:42;;;;;;;19.08;11.10;;;;;;;;;;5100097;28;20294;-64
2022/07/17 01:44:09;;;;;;;20.13;10.85;;;;;;;;;;5100023;28;20207;-63
2022/07/17 01:46:37;;;;;;;16.88;9.32;;;;;;;;;;5100076;28;20204;-63
2022/07/17 01:49:04;;;;;;;18.27;9.98;;;;;;;;;;5099832;28;20556;-64
2022/07/17 01:51:32;;;;;;;18.13;9.18;;;;;;;;;;5099475;28;20231;-64
2022/07/17 01:54:00;;;;;;;15.45;9.27;;;;;;;;;;5100049;28;20492;-64
2022/07/17 01:56:29;;;;;;;16.27;8.82;;;;;;;;;;5099431;28;20196;-64
2022/07/17 01:58:56;;;;;;;14.93;7.85;;;;;;;;;;5099717;28;20288;-68
2022/07/17 02:01:24;;;;;;;14.55;8.00;;;;;;;;;;5099899;28;20219;-64
2022/07/17 02:03:51;;;;;;;13.43;7.80;;;;;;;;;;5099616;28;20204;-63
2022/07/17 02:06:18;;;;;;;15.00;7.70;;;;;;;;;;5099667;28;20210;-63
2022/07/17 02:08:48;;;;;;;12.88;7.22;;;;;;;;;;5099621;28;20206;-63
2022/07/17 02:11:16;;;;;;;12.38;6.82;;;;;;;;;;5099572;28;20218;-64
2022/07/17 02:13:45;;;;;;;10.93;6.43;;;;;;;;;;5099487;28;20214;-63
2022/07/17 02:16:12;;;;;;;10.85;5.95;;;;;;;;;;5082034;28;20199;-63
2022/07/17 02:18:40;;;;;;;10.73;6.53;;;;;;;;;;5099668;28;20318;-63
2022/07/17 02:21:07;;;;;;;10.88;6.10;;;;;;;;;;5099291;28;20589;-63
2022/07/17 02:23:35;;;;;;;9.23;5.85;;;;;;;;;;5099451;28;20303;-63
2022/07/17 02:26:02;;;;;;;9.73;5.57;;;;;;;;;;5098934;28;20214;-63
2022/07/17 02:28:30;;;;;;;8.13;5.13;;;;;;;;;;5099198;28;20648;-63
2022/07/17 02:30:58;;;;;;;7.80;4.63;;;;;;;;;;5099156;28;20203;-63
2022/07/17 02:33:26;;;;;;;9.90;5.35;;;;;;;;;;5099243;28;20498;-64
2022/07/17 02:35:54;;;;;;;7.65;4.50;;;;;;;;;;5099112;28;20492;-63
2022/07/17 02:38:21;;;;;;;7.05;4.38;;;;;;;;;;5099084;28;20322;-64
2022/07/17 02:40:49;;;;;;;7.78;4.53;;;;;;;;;;5099334;28;20485;-63
2022/07/17 02:43:16;;;;;;;7.20;4.18;;;;;;;;;;5099391;28;20203;-63
2022/07/17 02:45:44;;;;;;;7.22;4.28;;;;;;;;;;5098672;28;20498;-64
2022/07/17 02:48:12;;;;;;;7.40;4.25;;;;;;;;;;5098728;28;20200;-63
2022/07/17 02:50:40;;;;;;;7.50;4.47;;;;;;;;;;5098605;28;20602;-64
2022/07/17 02:53:07;;;;;;;6.78;3.90;;;;;;;;;;5097690;28;20198;-63
2022/07/17 02:55:35;;;;;;;5.72;3.83;;;;;;;;;;5098696;28;20218;-63
2022/07/17 02:58:02;;;;;;;4.95;3.35;;;;;;;;;;5098102;28;20626;-63
2022/07/17 03:00:30;;;;;;;6.55;3.88;;;;;;;;;;5097847;28;20299;-64
2022/07/17 03:02:58;;;;;;;5.30;3.22;;;;;;;;;;5098592;28;20210;-64
2022/07/17 03:05:27;;;;;;;4.43;3.05;;;;;;;;;;5098116;28;20242;-64
2022/07/17 03:07:54;;;;;;;6.22;3.42;;;;;;;;;;5097696;28;20202;-63
2022/07/17 03:10:22;;;;;;;4.82;3.15;;;;;;;;;;5097596;28;20210;-63
2022/07/17 03:12:50;;;;;;;4.18;2.88;;;;;;;;;;5097046;28;20702;-64
2022/07/17 03:15:18;;;;;;;4.70;2.97;;;;;;;;;;5097016;28;20202;-63
2022/07/17 03:17:45;;;;;;;4.10;2.75;;;;;;;;;;5096088;28;20232;-64
2022/07/17 03:20:13;;;;;;;5.55;2.83;;;;;;;;;;5097607;28;20200;-63
2022/07/17 03:22:41;;;;;;;4.18;2.55;;;;;;;;;;5097009;28;20234;-63
2022/07/17 03:25:10;;;;;;;3.92;2.50;;;;;;;;;;5097763;28;20484;-63
2022/07/17 03:27:38;;;;;;;3.70;2.47;;;;;;;;;;5095983;28;20192;-63
2022/07/17 03:30:06;;;;;;;4.25;2.55;;;;;;;;;;5097586;28;20253;-63
2022/07/17 03:32:34;;;;;;;3.60;2.45;;;;;;;;;;5096904;28;20195;-63
2022/07/17 03:35:02;;;;;;;3.28;2.28;;;;;;;;;;5098194;28;20601;-64
2022/07/17 03:37:30;;;;;;;3.25;2.08;;;;;;;;;;5097169;28;20646;-63
2022/07/17 03:39:58;;;;;;;3.75;2.40;;;;;;;;;;5077484;28;20299;-63
2022/07/17 03:42:26;;;;;;;3.38;2.40;;;;;;;;;;5096111;28;20200;-63
2022/07/17 03:44:54;;;;;;;3.10;1.90;;;;;;;;;;5096646;28;20286;-64
2022/07/17 03:47:21;;;;;;;3.63;2.03;;;;;;;;;;5096795;28;20195;-64
2022/07/17 03:49:48;;;;;;;3.20;2.13;;;;;;;;;;5097867;28;20646;-64
2022/07/17 03:52:16;;;;;;;2.60;2.05;;;;;;;;;;5096641;28;20224;-64
2022/07/17 03:54:43;;;;;;;3.08;1.90;;;;;;;;;;5097276;28;20222;-63
2022/07/17 03:57:12;;;;;;;2.60;1.75;;;;;;;;;;5097577;28;20283;-64
2022/07/17 03:59:40;;;;;;;2.38;1.60;;;;;;;;;;5096862;28;20623;-64
2022/07/17 04:02:08;;;;;;;3.25;1.90;;;;;;;;;;5097020;28;20199;-64
2022/07/17 04:04:35;;;;;;;2.28;1.60;;;;;;;;;;5097530;28;20290;-64
2022/07/17 04:07:03;;;;;;;3.35;1.60;;;;;;;;;;5096455;28;20210;-64
2022/07/17 04:09:30;;;;;;;2.10;1.60;;;;;;;;;;5096692;28;20589;-64
2022/07/17 04:11:58;;;;;;;1.98;1.58;;;;;;;;;;5080643;28;20206;-63
2022/07/17 04:14:27;;;;;;;1.80;1.60;;;;;;;;;;5097862;28;20489;-64
2022/07/17 04:16:54;;;;;;;2.40;1.58;;;;;;;;;;5096820;28;20221;-63
2022/07/17 04:19:21;;;;;;;1.50;1.40;;;;;;;;;;5096627;28;20219;-63
2022/07/17 04:21:49;;;;;;;2.67;1.73;;;;;;;;;;5096591;28;20210;-63
2022/07/17 04:24:16;;;;;;;1.42;1.30;;;;;;;;;;5096611;28;20196;-64
2022/07/17 04:26:44;;;;;;;2.33;1.50;;;;;;;;;;5097322;28;20206;-63
2022/07/17 04:29:13;;;;;;;1.73;1.30;;;;;;;;;;5096104;28;20291;-63
2022/07/17 04:31:42;;;;;;;1.48;1.27;;;;;;;;;;5097047;28;20218;-64
2022/07/17 04:34:10;;;;;;;2.00;1.50;;;;;;;;;;5097181;28;20295;-63
2022/07/17 04:36:37;;;;;;;1.45;1.25;;;;;;;;;;5096927;28;20295;-63
2022/07/17 04:39:05;;;;;;;1.75;1.27;;;;;;;;;;5097225;28;20323;-64
2022/07/17 04:41:32;;;;;;;1.58;1.20;;;;;;;;;;5096124;28;20207;-63
2022/07/17 04:43:59;;;;;;;2.67;1.30;;;;;;;;;;5097119;28;20204;-63
2022/07/17 04:46:27;;;;;;;1.92;1.40;;;;;;;;;;5096745;28;20261;-63
2022/07/17 04:48:56;;;;;;;1.70;1.40;;;;;;;;;;5096889;28;20295;-64
2022/07/17 04:51:23;;;;;;;1.95;1.42;;;;;;;;;;5096499;28;20265;-63
2022/07/17 04:53:50;;;;;;;1.88;1.40;;;;;;;;;;5096477;28;20487;-63
2022/07/17 04:56:18;;;;;;;1.85;1.40;;;;;;;;;;5098236;28;20200;-63
2022/07/17 04:58:45;;;;;;;1.75;1.23;;;;;;;;;;5099548;28;20314;-63
2022/07/17 05:01:13;;;;;;;1.52;1.30;;;;;;;;;;5100545;28;20290;-64
2022/07/17 05:03:40;;;;;;;1.60;1.27;;;;;;;;;;5100505;28;20538;-64
2022/07/17 05:06:09;;;;;;;1.48;1.20;;;;;;;;;;5100376;28;20279;-63
2022/07/17 05:08:36;;;;;;;1.40;1.25;;;;;;;;;;5100637;28;20254;-63
2022/07/17 05:11:04;;;;;;;1.98;1.10;;;;;;;;;;5100635;28;20204;-64
2022/07/17 05:13:31;;;;;;;1.33;1.10;;;;;;;;;;5100427;28;20196;-64
2022/07/17 05:15:59;;;;;;;1.58;1.20;;;;;;;;;;5100317;28;20654;-63
2022/07/17 05:18:26;;;;;;;2.13;1.25;;;;;;;;;;5100733;28;20621;-63
2022/07/17 05:20:54;;;;;;;1.77;1.30;;;;;;;;;;5099528;28;20196;-63
2022/07/17 05:23:23;;;;;;;1.90;1.20;;;;;;;;;;5100157;28;20501;-63
2022/07/17 05:25:50;;;;;;;1.30;1.20;;;;;;;;;;5099342;28;20200;-63
2022/07/17 05:28:17;;;;;;;1.33;1.15;;;;;;;;;;5099718;28;20192;-64
2022/07/17 05:30:45;;;;;;;2.03;1.40;;;;;;;;;;5099661;28;20212;-63
2022/07/17 05:33:12;;;;;;;1.33;1.23;;;;;;;;;;5099670;28;20199;-64
2022/07/17 05:35:40;;;;;;;1.30;1.20;;;;;;;;;;5100165;28;20204;-63
2022/07/17 05:38:07;;;;;;;1.95;1.30;;;;;;;;;;5100643;28;20288;-63
2022/07/17 05:40:36;;;;;;;4.95;1.10;;;;;;;;;;5099732;28;20204;-64
2022/07/17 05:43:03;;;;;;;2.10;1.40;;;;;;;;;;5099916;28;20204;-64
2022/07/17 05:45:31;;;;;;;1.48;1.10;;;;;;;;;;5099175;28;20286;-64
2022/07/17 05:47:59;;;;;;;1.48;0.95;;;;;;;;;;5099743;28;20253;-63
2022/07/17 05:50:26;;;;;;;1.38;0.90;;;;;;;;;;5099142;28;20210;-63
2022/07/17 05:52:53;;;;;;;1.00;0.90;;;;;;;;;;5099694;28;20298;-63
2022/07/17 05:55:21;;;;;;;1.40;1.05;;;;;;;;;;5099460;28;20214;-63
2022/07/17 05:57:50;;;;;;;1.50;1.13;;;;;;;;;;5099292;28;20490;-63
2022/07/17 06:00:18;;;;;;;1.13;1.02;;;;;;;;;;5099311;28;20585;-64
2022/07/17 06:02:45;;;;;;;1.55;1.00;;;;;;;;;;5099139;28;20543;-63
2022/07/17 06:05:13;;;;;;;1.65;1.00;;;;;;;;;;5098788;28;20230;-63
2022/07/17 06:07:40;;;;;;;1.85;1.20;;;;;;;;;;5078879;28;20303;-63
2022/07/17 06:10:08;;;;;;;1.60;1.00;;;;;;;;;;5078798;28;20322;-63
2022/07/17 06:12:36;;;;;;;1.48;1.10;;;;;;;;;;5098325;28;20196;-65
2022/07/17 06:15:05;;;;;;;1.10;1.00;;;;;;;;;;5099115;28;20191;-64
2022/07/17 06:17:32;;;;;;;1.20;0.90;;;;;;;;;;5098706;28;20200;-64
2022/07/17 06:20:00;;;;;;;1.05;0.90;;;;;;;;;;5099508;28;20314;-63
2022/07/17 06:22:27;;;;;;;1.40;1.10;;;;;;;;;;5099035;28;20291;-65
2022/07/17 06:24:55;;;;;;;1.02;0.88;;;;;;;;;;5098691;28;20557;-63
2022/07/17 06:27:22;;;;;;;1.70;1.00;;;;;;;;;;5098955;28;20295;-63
2022/07/17 06:29:50;;;;;;;1.10;0.90;;;;;;;;;;5099458;28;20210;-64
2022/07/17 06:32:19;;;;;;;1.13;1.02;;;;;;;;;;5098422;28;20592;-63
2022/07/17 06:34:47;;;;;;;1.25;1.02;;;;;;;;;;5098753;28;20196;-63
2022/07/17 06:37:15;;;;;;;0.95;0.85;;;;;;;;;;5098373;28;20572;-64
2022/07/17 06:39:42;;;;;;;1.70;1.00;;;;;;;;;;5098492;28;20309;-64
2022/07/17 06:42:10;;;;;;;1.67;1.17;;;;;;;;;;5098223;28;20199;-63
2022/07/17 06:44:38;;;;;;;1.75;1.00;;;;;;;;;;5098589;28;20253;-63
2022/07/17 06:47:05;;;;;;;1.08;0.98;;;;;;;;;;5098282;28;20630;-63
2022/07/17 06:49:34;;;;;;;1.13;1.00;;;;;;;;;;5099172;28;20457;-63
2022/07/17 06:52:01;;;;;;;1.40;1.13;;;;;;;;;;5081766;28;20321;-63
2022/07/17 06:54:29;;;;;;;1.15;0.90;;;;;;;;;;5098014;28;20294;-63
2022/07/17 06:56:56;;;;;;;1.20;1.10;;;;;;;;;;5097446;28;20612;-63
2022/07/17 06:59:24;;;;;;;1.10;1.00;;;;;;;;;;5097877;28;20230;-64
2022/07/17 07:01:51;;;;;;;1.20;0.90;;;;;;;;;;5098156;28;20214;-63
2022/07/17 07:04:18;;;;;;;1.33;0.90;;;;;;;;;;5097935;28;20298;-63
2022/07/17 07:06:48;;;;;;;0.90;0.82;;;;;;;;;;5096564;28;20195;-64
2022/07/17 07:09:15;;;;;;;1.42;1.00;;;;;;;;;;5098248;28;20483;-64
2022/07/17 07:11:43;;;;;;;1.95;0.70;;;;;;;;;;5097398;28;20288;-64
2022/07/17 07:14:10;;;;;;;1.92;1.10;;;;;;;;;;5097209;28;20463;-63
2022/07/17 07:16:37;;;;;;;1.40;1.05;;;;;;;;;;5097191;28;20203;-63
2022/07/17 07:19:05;;;;;;;1.13;0.82;;;;;;;;;;5096114;28;20215;-64
2022/07/17 07:21:33;;;;;;;1.00;0.90;;;;;;;;;;5096583;28;20573;-63
2022/07/17 07:24:02;;;;;;;1.10;1.00;;;;;;;;;;5097113;28;20203;-64
2022/07/17 07:26:29;;;;;;;1.48;0.88;;;;;;;;;;5097229;28;20196;-64
2022/07/17 07:28:57;;;;;;;0.70;0.70;;;;;;;;;;5097434;28;20199;-64
2022/07/17 07:31:24;;;;;;;1.50;0.80;;;;;;;;;;5097505;28;20463;-64
2022/07/17 07:33:52;;;;;;;1.52;1.05;;;;;;;;;;5096889;28;20595;-63
2022/07/17 07:36:19;;;;;;;1.58;0.80;;;;;;;;;;5096465;28;20192;-63
2022/07/17 07:38:47;;;;;;;2.53;0.90;;;;;;;;;;5077005;28;20322;-64
2022/07/17 07:41:15;;;;;;;1.15;0.80;;;;;;;;;;5087796;28;20203;-64
2022/07/17 07:43:43;;;;;;;1.17;0.70;;;;;;;;;;5096755;28;20202;-64
2022/07/17 07:46:10;;;;;;;0.98;0.90;;;;;;;;;;5096927;28;20207;-63
2022/07/17 07:48:38;;;;;;;1.15;0.77;;;;;;;;;;5095179;28;20206;-65
2022/07/17 07:51:05;;;;;;;1.00;0.90;;;;;;;;;;5097034;28;20516;-63
2022/07/17 07:53:33;;;;;;;1.85;0.70;;;;;;;;;;5096407;28;20246;-63
2022/07/17 07:56:00;;;;;;;2.47;0.75;;;;;;;;;;5096176;28;20633;-64
2022/07/17 07:58:29;;;;;;;0.80;0.70;;;;;;;;;;5097017;28;20242;-63
2022/07/17 08:00:57;;;;;;;1.20;0.98;;;;;;;;;;5096573;28;20210;-64
2022/07/17 08:03:24;;;;;;;1.63;0.80;;;;;;;;;;5097082;28;20596;-63
2022/07/17 08:05:52;;;;;;;1.55;0.80;;;;;;;;;;5096229;28;20302;-64
2022/07/17 08:08:19;;;;;;;2.55;1.10;;;;;;;;;;5096651;28;20203;-64
2022/07/17 08:10:46;;;;;;;2.03;0.80;;;;;;;;;;5095707;28;20475;-64
2022/07/17 08:13:14;;;;;;;1.42;0.93;;;;;;;;;;5096385;28;20206;-64
2022/07/17 08:15:43;;;;;;;1.17;0.80;;;;;;;;;;5096028;28;20225;-64
2022/07/17 08:18:10;;;;;;;0.93;0.85;;;;;;;;;;5096349;28;20303;-63
2022/07/17 08:20:38;;;;;;;1.60;1.00;;;;;;;;;;5096682;28;20222;-63
2022/07/17 08:23:05;;;;;;;1.70;0.93;;;;;;;;;;5096890;28;20195;-64
2022/07/17 08:25:33;;;;;;;1.23;0.90;;;;;;;;;;5095702;28;20290;-63
2022/07/17 08:28:01;;;;;;;1.50;0.68;;;;;;;;;;5075972;28;20538;-63
2022/07/17 08:30:31;;;;;;;1.45;1.13;;;;;;;;;;5080913;28;20187;-64
2022/07/17 08:33:00;;;;;;;1.05;0.90;;;;;;;;;;5100757;28;20445;-63
2022/07/17 08:35:27;;;;;;;1.27;1.00;;;;;;;;;;5099374;28;20298;-63
2022/07/17 08:37:55;;;;;;;2.35;0.80;;;;;;;;;;5100719;28;20200;-65
2022/07/17 08:40:23;;;;;;;1.15;0.80;;;;;;;;;;5100425;28;20306;-63
2022/07/17 08:42:51;;;;;;;1.10;0.70;;;;;;;;;;5100311;28;20460;-63
2022/07/17 08:45:19;;;;;;;2.20;1.00;;;;;;;;;;5099711;28;20200;-63
2022/07/17 08:47:46;;;;;;;1.83;0.80;;;;;;;;;;5099605;28;20685;-63
2022/07/17 08:50:15;;;;;;;1.90;0.80;;;;;;;;;;5099564;28;20241;-64
2022/07/17 08:52:43;;;;;;;3.20;0.98;;;;;;;;;;5099342;28;20200;-64
2022/07/17 08:55:13;;;;;;;1.98;0.90;;;;;;;;;;5099646;28;20303;-64
2022/07/17 08:57:41;;;;;;;1.90;1.08;;;;;;;;;;5099353;28;20196;-64
2022/07/17 09:00:10;;;;;;;1.08;0.82;;;;;;;;;;5098166;28;20216;-64
2022/07/17 09:02:38;;;;;;;1.20;0.80;;;;;;;;;;5099305;28;20662;-64
2022/07/17 09:05:05;;;;;;;1.50;1.00;;;;;;;;;;5099518;28;20200;-63
2022/07/17 09:07:35;;;;;;;1.70;0.90;;;;;;;;;;5099345;28;20283;-63
2022/07/17 09:10:03;;;;;;;1.65;0.90;;;;;;;;;;5083990;28;20478;-63
2022/07/17 09:12:31;;;;;;;1.98;0.80;;;;;;;;;;5099153;28;20207;-63
2022/07/17 09:14:58;;;;;;;2.33;0.93;;;;;;;;;;5099022;28;20200;-64
2022/07/17 09:17:27;;;;;;;1.52;0.70;;;;;;;;;;5098853;28;20265;-64
2022/07/17 09:19:54;;;;;;;1.48;0.77;;;;;;;;;;5099067;28;20372;-64
2022/07/17 09:22:23;;;;;;;1.20;0.90;;;;;;;;;;5098205;28;20191;-63
2022/07/17 09:24:53;;;;;;;1.83;0.73;;;;;;;;;;5098074;28;20237;-64
2022/07/17 09:27:31;;;;;;;1.40;0.70;;;;;;;;;;5098229;28;20286;-64
2022/07/17 09:30:00;;;;;;;1.20;0.70;;;;;;;;;;5098374;28;20252;-64
2022/07/17 09:32:28;;;;;;;1.98;0.88;;;;;;;;;;5098756;28;20566;-63
2022/07/17 09:34:56;;;;;;;2.67;0.90;;;;;;;;;;5098920;28;20214;-63
2022/07/17 09:37:24;;;;;;;1.35;0.82;;;;;;;;;;5098867;28;20206;-64
2022/07/17 09:39:54;;;;;;;1.17;0.73;;;;;;;;;;5098292;28;20234;-64
2022/07/17 09:42:26;;;;;;;1.52;0.70;;;;;;;;;;5097907;28;20215;-64
2022/07/17 09:44:57;;;;;;;0.85;0.70;;;;;;;;;;5098445;28;20306;-63
2022/07/17 09:47:25;;;;;;;1.02;0.63;;;;;;;;;;5098640;28;20203;-63
2022/07/17 09:49:54;;;;;;;1.40;0.70;;;;;;;;;;5098431;28;20212;-64
2022/07/17 09:52:23;;;;;;;0.98;0.80;;;;;;;;;;5098516;28;20280;-64
2022/07/17 09:54:53;;;;;;;1.25;0.82;;;;;;;;;;5098055;28;20257;-63
2022/07/17 09:57:22;;;;;;;1.08;0.70;;;;;;;;;;5094950;28;20211;-64
2022/07/17 09:59:50;;;;;;;1.30;0.80;;;;;;;;;;5097364;28;20518;-63
2022/07/17 10:02:18;;;;;;;1.20;0.68;;;;;;;;;;5097277;28;20286;-63
2022/07/17 10:04:47;;;;;;;0.98;0.75;;;;;;;;;;5097861;28;20213;-65
2022/07/17 10:07:14;;;;;;;1.13;0.77;;;;;;;;;;5098239;28;20214;-64
2022/07/17 10:09:42;;;;;;;1.45;0.77;;;;;;;;;;5098065;28;20282;-63
2022/07/17 10:12:09;;;;;;;1.15;0.63;;;;;;;;;;5097372;28;20286;-63
2022/07/17 10:14:41;;;;;;;1.30;0.80;;;;;;;;;;5097944;28;20239;-64
2022/07/17 10:17:08;;;;;;;0.93;0.80;;;;;;;;;;5097425;28;20212;-64
2022/07/17 10:19:36;;;;;;;1.15;0.80;;;;;;;;;;5097948;28;20220;-63
2022/07/17 10:22:06;;;;;;;1.50;0.80;;;;;;;;;;5097788;28;20217;-64
2022/07/17 10:24:34;;;;;;;1.02;0.77;;;;;;;;;;5098052;28;20203;-63
2022/07/17 10:27:01;;;;;;;1.20;0.68;;;;;;;;;;5097695;28;20585;-63
2022/07/17 10:29:40;;;;;;;1.25;0.88;;;;;;;;;;5097977;28;20555;-63
2022/07/17 10:32:09;;;;;;;1.02;0.73;;;;;;;;;;5077821;28;20258;-64
2022/07/17 10:34:41;;;;;;;0.93;0.63;;;;;;;;;;5086296;28;20191;-64
2022/07/17 10:37:18;;;;;;;0.82;0.60;;;;;;;;;;5096844;28;20242;-64
2022/07/17 10:39:59;;;;;;;1.02;0.70;;;;;;;;;;5097242;28;20227;-63
2022/07/17 10:42:39;;;;;;;1.00;0.90;;;;;;;;;;5096290;28;20198;-63
2022/07/17 10:45:09;;;;;;;1.63;0.85;;;;;;;;;;5084853;28;20234;-63
2022/07/17 10:47:47;;;;;;;0.88;0.80;;;;;;;;;;5097154;28;20200;-64
2022/07/17 10:50:15;;;;;;;0.77;0.70;;;;;;;;;;5093491;28;20276;-64
2022/07/17 10:52:43;;;;;;;0.77;0.70;;;;;;;;;;5097380;28;20195;-63
2022/07/17 10:55:20;;;;;;;1.80;1.00;;;;;;;;;;5096035;28;20200;-63
2022/07/17 10:57:48;;;;;;;1.73;0.75;;;;;;;;;;5097057;28;20200;-63
2022/07/17 11:00:17;;;;;;;1.25;0.65;;;;;;;;;;5096612;28;20223;-64
2022/07/17 11:02:45;;;;;;;1.42;0.85;;;;;;;;;;5096668;28;20307;-64
2022/07/17 11:05:14;;;;;;;1.10;0.90;;;;;;;;;;5097426;28;20196;-64
2022/07/17 11:07:51;;;;;;;0.60;0.57;;;;;;;;;;5096797;28;20282;-63
2022/07/17 11:10:19;;;;;;;4.28;0.60;;;;;;;;;;5095522;28;20581;-64
2022/07/17 11:12:46;;;;;;;1.90;0.70;;;;;;;;;;5096396;28;20221;-63
2022/07/17 11:15:14;;;;;;;0.93;0.75;;;;;;;;;;5095953;28;20734;-65
2022/07/17 11:17:47;;;;;;;0.75;0.63;;;;;;;;;;5079982;28;20195;-64
2022/07/17 11:20:17;;;;;;;0.65;0.65;;;;;;;;;;5095560;28;20211;-63
2022/07/17 11:22:45;;;;;;;1.20;0.70;;;;;;;;;;5095836;28;20204;-63
2022/07/17 11:25:13;;;;;;;0.57;0.57;;;;;;;;;;5094587;28;20192;-63
2022/07/17 11:27:40;;;;;;;1.00;0.70;;;;;;;;;;5097066;28;20204;-64
2022/07/17 11:30:13;;;;;;;1.40;0.80;;;;;;;;;;5095865;28;20296;-63
2022/07/17 11:32:42;;;;;;;1.05;0.68;;;;;;;;;;5095903;28;20578;-63
2022/07/17 11:35:17;;;;;;;0.90;0.77;;;;;;;;;;5095762;28;20188;-63
2022/07/17 11:37:45;;;;;;;0.85;0.77;;;;;;;;;;5095743;28;20206;-63
2022/07/17 11:40:13;;;;;;;1.13;0.80;;;;;;;;;;5096360;28;20610;-63
2022/07/17 11:42:40;;;;;;;1.48;0.77;;;;;;;;;;5095465;28;20294;-63
2022/07/17 11:45:09;;;;;;;1.50;0.88;;;;;;;;;;5095380;28;20626;-63
2022/07/17 11:47:37;;;;;;;1.70;0.70;;;;;;;;;;5094749;28;20199;-63
2022/07/17 11:50:09;;;;;;;1.73;0.80;;;;;;;;;;5094904;28;20232;-63
2022/07/17 11:52:45;;;;;;;1.80;0.75;;;;;;;;;;5095202;28;20204;-63
2022/07/17 11:55:13;;;;;;;1.95;0.80;;;;;;;;;;5095188;28;20298;-63
2022/07/17 11:57:45;;;;;;;1.10;0.80;;;;;;;;;;5095209;28;20557;-63
2022/07/17 12:00:14;;;;;;;1.48;0.80;;;;;;;;;;5095756;28;20224;-63
2022/07/17 12:02:41;;;;;;;1.42;0.50;;;;;;;;;;5095301;28;20623;-63
2022/07/17 12:05:09;;;;;;;1.45;0.60;;;;;;;;;;5094794;28;20200;-67
2022/07/17 12:07:53;;;;;;;1.40;0.70;;;;;;;;;;5095123;28;20282;-63
2022/07/17 12:10:21;;;;;;;1.92;0.80;;;;;;;;;;5094885;28;20192;-63
2022/07/17 12:12:56;;;;;;;2.70;0.80;;;;;;;;;;5096047;28;20214;-63
2022/07/17 12:15:24;;;;;;;1.75;0.90;;;;;;;;;;5095519;28;20469;-63
2022/07/17 12:17:51;;;;;;;2.35;0.85;;;;;;;;;;5094810;28;20204;-63
2022/07/17 12:20:19;;;;;;;1.88;0.80;;;;;;;;;;5094661;28;20226;-63
2022/07/17 12:22:50;;;;;;;1.90;0.90;;;;;;;;;;5094647;28;20238;-63
2022/07/17 12:25:24;;;;;;;1.80;0.93;;;;;;;;;;5094832;28;20231;-63
2022/07/17 12:27:51;;;;;;;2.20;1.00;;;;;;;;;;5095124;28;20730;-63
2022/07/17 12:30:19;;;;;;;2.15;0.63;;;;;;;;;;5094496;28;20491;-63
2022/07/17 12:32:47;;;;;;;1.92;0.70;;;;;;;;;;5094996;28;20303;-63
2022/07/17 12:35:15;;;;;;;1.35;0.70;;;;;;;;;;5094765;28;20231;-63
2022/07/17 12:37:43;;;;;;;1.63;1.10;;;;;;;;;;5092407;28;20199;-63
2022/07/17 12:40:13;;;;;;;2.58;1.13;;;;;;;;;;5093543;28;20744;-63
2022/07/17 12:42:41;;;;;;;2.28;1.10;;;;;;;;;;5094231;28;20243;-63
2022/07/17 12:45:09;;;;;;;1.80;0.80;;;;;;;;;;5094261;28;20198;-63
2022/07/17 12:47:37;;;;;;;1.23;0.77;;;;;;;;;;5094651;28;20299;-63
2022/07/17 12:50:04;;;;;;;2.20;0.80;;;;;;;;;;5093848;28;20260;-63
2022/07/17 12:52:32;;;;;;;2.20;0.90;;;;;;;;;;5094948;28;20235;-63
2022/07/17 12:55:00;;;;;;;1.77;0.85;;;;;;;;;;5094787;28;20204;-63
2022/07/17 12:57:29;;;;;;;2.92;1.05;;;;;;;;;;5095000;28;20207;-63
2022/07/17 12:59:56;;;;;;;1.20;0.77;;;;;;;;;;5094001;28;20192;-62
2022/07/17 13:02:24;;;;;;;2.40;0.90;;;;;;;;;;5094511;28;20203;-62
2022/07/17 13:04:52;;;;;;;1.05;0.80;;;;;;;;;;5093937;28;20311;-62
2022/07/17 13:07:19;;;;;;;1.20;0.80;;;;;;;;;;5094482;28;20235;-62
2022/07/17 13:09:46;;;;;;;0.95;0.77;;;;;;;;;;5094715;28;20205;-62
2022/07/17 13:12:14;;;;;;;0.70;0.60;;;;;;;;;;5095137;28;20210;-62
2022/07/17 13:14:43;;;;;;;1.05;0.80;;;;;;;;;;5094491;28;20212;-62
2022/07/17 13:17:10;;;;;;;1.30;0.75;;;;;;;;;;5094134;28;20199;-62
2022/07/17 13:19:37;;;;;;;1.08;0.70;;;;;;;;;;5097797;28;20773;-62
2022/07/17 13:22:05;;;;;;;1.10;0.68;;;;;;;;;;5096915;28;20223;-62
2022/07/17 13:24:33;;;;;;;1.23;0.80;;;;;;;;;;5097919;28;20661;-62
2022/07/17 13:27:01;;;;;;;1.15;0.85;;;;;;;;;;5096666;28;20294;-62
2022/07/17 13:29:28;;;;;;;1.55;0.93;;;;;;;;;;5097967;28;20208;-62
2022/07/17 13:31:57;;;;;;;0.77;0.60;;;;;;;;;;5095918;28;20184;-62
2022/07/17 13:34:25;;;;;;;1.25;0.85;;;;;;;;;;5098708;28;20203;-62
2022/07/17 13:36:52;;;;;;;0.80;0.80;;;;;;;;;;5098199;28;20200;-62
2022/07/17 13:39:20;;;;;;;0.82;0.70;;;;;;;;;;5098550;28;20235;-62
2022/07/17 13:41:47;;;;;;;0.77;0.77;;;;;;;;;;5097979;28;20263;-62
2022/07/17 13:44:15;;;;;;;2.42;0.82;;;;;;;;;;5097880;28;20210;-62
2022/07/17 13:46:42;;;;;;;0.60;0.52;;;;;;;;;;5097856;28;20200;-62
2022/07/17 13:49:11;;;;;;;0.70;0.70;;;;;;;;;;5097657;28;20203;-62
2022/07/17 13:51:39;;;;;;;0.70;0.70;;;;;;;;;;5096556;28;20216;-62
2022/07/17 13:54:07;;;;;;;1.23;0.80;;;;;;;;;;5096470;28;20203;-62
2022/07/17 13:56:35;;;;;;;1.08;0.77;;;;;;;;;;5097069;28;20207;-62
2022/07/17 13:59:02;;;;;;;0.88;0.70;;;;;;;;;;5097553;28;20199;-62
2022/07/17 14:01:29;;;;;;;2.63;0.75;;;;;;;;;;5096925;28;20318;-69
2022/07/17 14:03:58;;;;;;;1.67;0.90;;;;;;;;;;5097297;28;20203;-62
2022/07/17 14:06:27;;;;;;;1.15;0.75;;;;;;;;;;5097096;28;20192;-62
2022/07/17 14:08:54;;;;;;;2.58;0.80;;;;;;;;;;5097618;28;20795;-63
2022/07/17 14:11:22;;;;;;;2.13;0.80;;;;;;;;;;5097568;28;20192;-62
2022/07/17 14:13:51;;;;;;;3.13;0.80;;;;;;;;;;5097334;28;20299;-62
2022/07/17 14:16:19;;;;;;;1.85;0.98;;;;;;;;;;5096307;28;20195;-62
2022/07/17 14:19:00;;;;;;;1.10;0.60;;;;;;;;;;5097193;28;20196;-62
2022/07/17 14:21:30;;;;;;;2.92;0.68;;;;;;;;;;5080920;28;20224;-63
2022/07/17 14:23:58;;;;;;;1.25;0.65;;;;;;;;;;5097011;28;20196;-63
2022/07/17 14:26:26;;;;;;;1.83;0.70;;;;;;;;;;5097095;28;20286;-63
2022/07/17 14:28:53;;;;;;;0.90;0.60;;;;;;;;;;5096367;28;20511;-62
2022/07/17 14:31:21;;;;;;;1.33;0.73;;;;;;;;;;5096214;28;20195;-62
2022/07/17 14:33:48;;;;;;;0.88;0.68;;;;;;;;;;5097055;28;20472;-64
2022/07/17 14:36:16;;;;;;;1.60;0.95;;;;;;;;;;5096937;28;20188;-63
2022/07/17 14:38:45;;;;;;;2.25;0.70;;;;;;;;;;5097261;28;20203;-62
2022/07/17 14:41:12;;;;;;;1.77;0.80;;;;;;;;;;5097311;28;20322;-62
2022/07/17 14:43:39;;;;;;;1.83;0.70;;;;;;;;;;5096134;28;20222;-62